createdAt,value
2023-02-14T00:01:45.456Z,23.80
2023-02-14T00:04:14.168Z,24.10
2023-02-14T00:06:43.008Z,19.90
2023-02-14T00:09:13.885Z,24.73
2023-02-14T00:11:46.693Z,22.98
2023-02-14T00:14:34.657Z,22.30
2023-02-14T00:17:02.962Z,26.67
2023-02-14T00:19:31.757Z,22.67
2023-02-14T00:22:00.233Z,22.27
2023-02-14T00:24:28.708Z,23.20
2023-02-14T00:26:57.254Z,25.60
2023-02-14T00:29:28.761Z,25.40
2023-02-14T00:31:57.479Z,23.27
2023-02-14T00:34:26.765Z,24.30
2023-02-14T00:36:55.037Z,23.63
2023-02-14T00:39:23.482Z,26.05
2023-02-14T00:41:51.838Z,21.80
2023-02-14T00:44:35.509Z,22.85
2023-02-14T00:47:05.496Z,22.75
2023-02-14T00:49:34.259Z,29.10
2023-02-14T00:52:02.886Z,27.70
2023-02-14T00:54:32.721Z,24.33
2023-02-14T00:57:01.503Z,26.85
2023-02-14T00:59:30.745Z,28.35
2023-02-14T01:02:01.287Z,26.23
2023-02-14T01:04:30.724Z,28.05
2023-02-14T01:06:59.202Z,28.98
2023-02-14T01:09:28.229Z,27.00
2023-02-14T01:11:57.136Z,26.83
2023-02-14T01:14:25.888Z,28.35
2023-02-14T01:16:54.493Z,26.63
2023-02-14T01:19:27.629Z,25.48
2023-02-14T01:21:56.207Z,25.90
2023-02-14T01:24:32.853Z,28.42
2023-02-14T01:27:02.597Z,27.98
2023-02-14T01:29:30.986Z,34.33
2023-02-14T01:32:05.197Z,32.47
2023-02-14T01:34:35.279Z,26.35
2023-02-14T01:37:04.239Z,27.00
2023-02-14T01:39:33.115Z,28.40
2023-02-14T01:42:02.783Z,28.20
2023-02-14T01:44:58.780Z,24.20
2023-02-14T01:47:30.040Z,28.45
2023-02-14T01:50:04.167Z,25.23
2023-02-14T01:52:38.622Z,27.05
2023-02-14T01:55:15.027Z,29.05
2023-02-14T01:57:50.660Z,27.77
2023-02-14T02:00:38.935Z,24.23
2023-02-14T02:03:09.498Z,28.55
2023-02-14T02:05:42.331Z,26.77
2023-02-14T02:08:12.016Z,25.77
2023-02-14T02:10:40.446Z,31.02
2023-02-14T02:13:15.922Z,29.13
2023-02-14T02:15:57.359Z,27.27
2023-02-14T02:18:36.399Z,28.80
2023-02-14T02:21:37.372Z,28.10
2023-02-14T02:24:18.743Z,26.45
2023-02-14T02:27:08.726Z,24.83
2023-02-14T02:30:14.089Z,26.80
2023-02-14T02:33:18.468Z,32.00
2023-02-14T02:36:12.879Z,22.75
2023-02-14T02:38:55.639Z,27.63
2023-02-14T02:41:35.642Z,25.73
2023-02-14T02:44:12.567Z,27.90
2023-02-14T02:46:49.239Z,27.55
2023-02-14T02:49:50.817Z,32.90
2023-02-14T02:52:42.790Z,30.65
2023-02-14T02:55:18.770Z,28.83
2023-02-14T02:57:48.740Z,28.08
2023-02-14T03:00:21.688Z,29.15
2023-02-14T03:03:11.182Z,28.63
2023-02-14T03:05:40.428Z,32.83
2023-02-14T03:08:10.474Z,30.00
2023-02-14T03:11:05.800Z,28.92
2023-02-14T03:13:56.693Z,27.58
2023-02-14T03:16:36.456Z,30.02
2023-02-14T03:19:32.983Z,31.70
2023-02-14T03:22:08.809Z,29.77
2023-02-14T03:24:53.124Z,28.02
2023-02-14T03:27:25.978Z,31.20
2023-02-14T03:30:03.029Z,30.73
2023-02-14T03:32:40.120Z,34.92
2023-02-14T03:35:16.251Z,34.97
2023-02-14T03:37:50.696Z,31.65
2023-02-14T03:40:24.482Z,32.28
2023-02-14T03:42:56.782Z,31.50
2023-02-14T03:45:31.899Z,27.15
2023-02-14T03:48:05.164Z,26.30
2023-02-14T03:50:35.796Z,27.67
2023-02-14T03:53:06.611Z,28.70
2023-02-14T03:55:41.938Z,29.67
2023-02-14T03:58:21.839Z,26.73
2023-02-14T04:00:54.037Z,27.42
2023-02-14T04:03:25.246Z,28.25
2023-02-14T04:05:54.091Z,27.70
2023-02-14T04:08:25.072Z,27.90
2023-02-14T04:11:15.140Z,28.50
2023-02-14T04:13:43.691Z,28.23
2023-02-14T04:16:12.295Z,32.05
2023-02-14T04:18:58.492Z,29.73
2023-02-14T04:21:27.211Z,26.77
2023-02-14T04:23:58.083Z,31.23
2023-02-14T04:26:28.047Z,30.30
2023-02-14T04:28:56.553Z,30.98
2023-02-14T04:31:28.152Z,30.85
2023-02-14T04:33:56.796Z,29.23
2023-02-14T04:36:25.246Z,30.13
2023-02-14T04:38:53.766Z,32.47
2023-02-14T04:41:22.538Z,30.58
2023-02-14T04:43:52.547Z,34.33
2023-02-14T04:46:21.159Z,33.35
2023-02-14T04:48:56.020Z,30.08
2023-02-14T04:51:27.571Z,32.08
2023-02-14T04:53:56.252Z,32.47
2023-02-14T04:56:26.063Z,34.58
2023-02-14T04:58:58.292Z,35.53
2023-02-14T05:01:26.801Z,32.53
2023-02-14T05:03:55.364Z,34.83
2023-02-14T05:06:24.168Z,33.75
2023-02-14T05:08:52.918Z,35.55
2023-02-14T05:11:21.346Z,33.35
2023-02-14T05:13:49.898Z,30.02
2023-02-14T05:16:19.799Z,34.17
2023-02-14T05:18:48.652Z,30.35
2023-02-14T05:21:17.195Z,29.80
2023-02-14T05:23:45.618Z,29.98
2023-02-14T05:26:14.340Z,33.50
2023-02-14T05:28:42.728Z,31.85
2023-02-14T05:31:11.572Z,31.33
2023-02-14T05:33:41.506Z,29.00
2023-02-14T05:36:10.161Z,29.38
2023-02-14T05:38:38.914Z,30.23
2023-02-14T05:41:10.907Z,28.25
2023-02-14T05:43:39.469Z,32.92
2023-02-14T05:46:08.188Z,33.50
2023-02-14T05:48:37.010Z,33.10
2023-02-14T05:51:08.827Z,37.25
2023-02-14T05:53:37.982Z,35.60
2023-02-14T05:56:07.110Z,48.95
2023-02-14T05:58:35.814Z,45.00
2023-02-14T06:01:04.294Z,46.33
2023-02-14T06:03:32.968Z,52.08
2023-02-14T06:06:01.522Z,54.90
2023-02-14T06:08:31.397Z,55.08
2023-02-14T06:11:02.455Z,83.90
2023-02-14T06:13:31.500Z,77.65
2023-02-14T06:16:00.417Z,74.93
2023-02-14T06:18:29.742Z,57.20
2023-02-14T06:20:58.806Z,64.70
2023-02-14T06:23:27.881Z,63.17
2023-02-14T06:25:57.817Z,56.20
2023-02-14T06:28:26.409Z,43.08
2023-02-14T06:30:54.949Z,52.45
2023-02-14T06:33:27.828Z,51.40
2023-02-14T06:35:56.749Z,55.90
2023-02-14T06:38:25.504Z,61.55
2023-02-14T06:40:54.368Z,53.15
2023-02-14T06:43:24.709Z,45.47
2023-02-14T06:45:53.661Z,50.63
2023-02-14T06:48:21.974Z,43.80
2023-02-14T06:50:50.467Z,45.58
2023-02-14T06:53:18.750Z,56.15
2023-02-14T06:55:47.108Z,56.03
2023-02-14T06:58:15.428Z,50.05
2023-02-14T07:00:44.975Z,61.42
2023-02-14T07:03:13.265Z,56.35
2023-02-14T07:05:41.552Z,52.53
2023-02-14T07:08:10.324Z,80.72
2023-02-14T07:10:38.788Z,50.80
2023-02-14T07:13:07.388Z,60.25
2023-02-14T07:15:35.852Z,77.38
2023-02-14T07:18:06.582Z,89.10
2023-02-14T07:20:34.820Z,117.40
2023-02-14T07:23:03.086Z,71.07
2023-02-14T07:25:31.487Z,71.90
2023-02-14T07:27:59.873Z,73.20
2023-02-14T07:30:28.186Z,69.80
2023-02-14T07:32:57.599Z,87.68
2023-02-14T07:35:27.212Z,121.32
2023-02-14T07:37:55.521Z,77.80
2023-02-14T07:40:25.111Z,62.90
2023-02-14T07:42:58.560Z,61.78
2023-02-14T07:45:27.259Z,49.40
2023-02-14T07:47:58.969Z,81.55
2023-02-14T07:50:29.525Z,67.22
2023-02-14T07:52:58.123Z,110.40
2023-02-14T07:55:26.304Z,71.05
2023-02-14T07:57:54.671Z,70.00
2023-02-14T08:00:23.521Z,46.78
2023-02-14T08:02:51.825Z,74.47
2023-02-14T08:05:20.290Z,81.32
2023-02-14T08:07:50.489Z,69.55
2023-02-14T08:10:18.881Z,60.80
2023-02-14T08:13:02.191Z,52.47
2023-02-14T08:15:49.846Z,52.95
2023-02-14T08:18:18.694Z,45.55
2023-02-14T08:20:48.651Z,49.20
2023-02-14T08:23:19.596Z,51.60
2023-02-14T08:25:49.117Z,50.50
2023-02-14T08:28:18.059Z,52.17
2023-02-14T08:30:46.632Z,47.47
2023-02-14T08:33:14.917Z,48.10
2023-02-14T08:35:43.221Z,46.88
2023-02-14T08:38:11.805Z,43.97
2023-02-14T08:40:41.517Z,43.03
2023-02-14T08:43:10.347Z,43.95
2023-02-14T08:45:39.662Z,47.38
2023-02-14T08:48:10.202Z,40.38
2023-02-14T08:50:39.601Z,44.17
2023-02-14T08:53:09.542Z,39.88
2023-02-14T08:55:38.324Z,42.05
2023-02-14T08:58:08.511Z,40.75
2023-02-14T09:00:36.934Z,38.95
2023-02-14T09:03:05.401Z,42.03
2023-02-14T09:05:35.067Z,38.60
2023-02-14T09:08:03.821Z,37.42
2023-02-14T09:10:32.177Z,36.95
2023-02-14T09:13:00.479Z,35.85
2023-02-14T09:15:30.055Z,35.92
2023-02-14T09:17:58.405Z,31.52
2023-02-14T09:20:26.712Z,30.40
2023-02-14T09:22:57.994Z,32.97
2023-02-14T09:25:26.239Z,31.63
2023-02-14T09:27:54.510Z,33.15
2023-02-14T09:30:22.837Z,31.95
2023-02-14T09:32:54.261Z,33.70
2023-02-14T09:35:22.807Z,34.65
2023-02-14T09:38:08.324Z,33.00
2023-02-14T09:40:36.674Z,33.83
2023-02-14T09:43:12.777Z,34.67
2023-02-14T09:45:41.604Z,34.55
2023-02-14T09:48:18.712Z,34.67
2023-02-14T09:50:50.937Z,32.67
2023-02-14T09:53:26.534Z,33.88
2023-02-14T09:56:03.683Z,35.72
2023-02-14T09:58:36.808Z,35.63
2023-02-14T10:01:13.796Z,32.80
2023-02-14T10:04:07.410Z,39.08
2023-02-14T10:06:46.491Z,34.35
2023-02-14T10:09:26.368Z,36.88
2023-02-14T10:11:55.772Z,32.90
2023-02-14T10:14:26.857Z,33.65
2023-02-14T10:17:00.327Z,36.00
2023-02-14T10:19:35.457Z,31.08
2023-02-14T10:22:06.163Z,30.10
2023-02-14T10:24:39.468Z,34.78
2023-02-14T10:27:28.107Z,30.20
2023-02-14T10:29:56.457Z,29.10
2023-02-14T10:32:31.142Z,33.58
2023-02-14T10:35:05.296Z,29.45
2023-02-14T10:37:45.921Z,29.80
2023-02-14T10:40:35.087Z,27.33
2023-02-14T10:43:15.140Z,28.05
2023-02-14T10:45:53.279Z,28.38
2023-02-14T10:48:32.054Z,29.88
2023-02-14T10:51:12.273Z,28.55
2023-02-14T10:53:48.672Z,28.77
2023-02-14T10:56:21.390Z,28.90
2023-02-14T10:58:52.181Z,28.48
2023-02-14T11:01:21.045Z,26.90
2023-02-14T11:03:55.779Z,32.28
2023-02-14T11:06:25.751Z,29.75
2023-02-14T11:08:56.202Z,24.25
2023-02-14T11:11:31.044Z,24.27
2023-02-14T11:13:59.274Z,30.38
2023-02-14T11:16:33.227Z,28.52
2023-02-14T11:19:11.044Z,27.65
2023-02-14T11:21:42.354Z,26.15
2023-02-14T11:24:19.924Z,28.33
2023-02-14T11:26:52.870Z,27.15
2023-02-14T11:29:28.522Z,32.92
2023-02-14T11:31:57.918Z,26.38
2023-02-14T11:34:36.624Z,27.27
2023-02-14T11:37:26.835Z,26.15
2023-02-14T11:39:57.084Z,26.67
2023-02-14T11:42:42.826Z,23.75
2023-02-14T11:45:30.479Z,26.67
2023-02-14T11:48:19.668Z,27.90
2023-02-14T11:50:56.777Z,27.08
2023-02-14T11:53:30.632Z,25.08
2023-02-14T11:56:09.764Z,25.13
2023-02-14T11:58:42.455Z,26.23
2023-02-14T12:01:15.457Z,30.58
2023-02-14T12:03:48.271Z,26.00
2023-02-14T12:06:25.834Z,25.83
2023-02-14T12:09:12.296Z,27.88
2023-02-14T12:11:41.093Z,28.88
2023-02-14T12:14:21.930Z,28.13
2023-02-14T12:16:57.410Z,31.45
2023-02-14T12:19:35.891Z,25.45
2023-02-14T12:22:06.442Z,27.85
2023-02-14T12:24:39.102Z,23.67
2023-02-14T12:27:21.330Z,23.27
2023-02-14T12:29:53.550Z,26.48
2023-02-14T12:32:24.323Z,26.20
2023-02-14T12:34:57.170Z,34.45
2023-02-14T12:37:34.958Z,26.23
2023-02-14T12:40:15.084Z,29.45
2023-02-14T12:42:57.110Z,30.02
2023-02-14T12:45:37.115Z,30.25
2023-02-14T12:48:17.975Z,28.48
2023-02-14T12:50:52.842Z,24.80
2023-02-14T12:53:49.314Z,26.67
2023-02-14T12:56:40.510Z,26.95
2023-02-14T13:00:20.454Z,28.00
2023-02-14T13:14:33.134Z,43.35
2023-02-14T13:17:09.080Z,28.85
2023-02-14T13:19:48.946Z,28.80
2023-02-14T13:23:56.877Z,30.67
2023-02-14T13:26:31.334Z,28.35
2023-02-14T13:29:06.063Z,28.50
2023-02-14T13:31:35.007Z,39.90
2023-02-14T13:34:08.029Z,33.88
2023-02-14T13:36:38.097Z,28.50
2023-02-14T13:39:07.967Z,26.50
2023-02-14T13:41:41.720Z,27.50
2023-02-14T13:44:11.318Z,29.98
2023-02-14T13:47:03.677Z,27.73
2023-02-14T13:49:34.592Z,27.92
2023-02-14T13:52:04.615Z,31.00
2023-02-14T13:54:37.093Z,28.23
2023-02-14T13:57:28.041Z,32.88
2023-02-14T14:00:23.831Z,31.35
2023-02-14T14:02:53.056Z,32.05
2023-02-14T14:05:51.060Z,34.67
2023-02-14T14:08:54.888Z,30.75
2023-02-14T14:11:50.765Z,32.75
2023-02-14T14:14:36.305Z,32.15
2023-02-14T14:17:21.794Z,28.10
2023-02-14T14:19:50.345Z,31.55
2023-02-14T14:22:19.879Z,28.85
2023-02-14T14:25:02.665Z,27.98
2023-02-14T14:27:34.663Z,28.58
2023-02-14T14:30:06.040Z,26.50
2023-02-14T14:32:37.920Z,27.77
2023-02-14T14:35:09.216Z,24.77
2023-02-14T14:37:46.791Z,26.17
2023-02-14T14:40:24.849Z,27.33
2023-02-14T14:42:54.333Z,28.08
2023-02-14T14:45:24.499Z,24.15
2023-02-14T14:47:58.795Z,26.88
2023-02-14T14:50:29.496Z,23.30
2023-02-14T14:53:03.760Z,25.05
2023-02-14T14:55:34.468Z,23.50
2023-02-14T14:58:04.825Z,22.98
2023-02-14T15:00:35.448Z,24.45
2023-02-14T15:03:07.885Z,21.13
2023-02-14T15:05:39.156Z,21.95
2023-02-14T15:08:23.600Z,24.30
2023-02-14T15:10:56.019Z,24.05
2023-02-14T15:13:51.025Z,24.17
2023-02-14T15:16:26.055Z,22.80
2023-02-14T15:18:59.278Z,22.63
2023-02-14T15:21:28.719Z,23.20
2023-02-14T15:23:57.219Z,22.38
2023-02-14T15:26:29.490Z,26.88
2023-02-14T15:29:00.203Z,26.02
2023-02-14T15:31:34.125Z,25.90
2023-02-14T15:34:04.838Z,27.63
2023-02-14T15:36:35.428Z,25.58
2023-02-14T15:39:07.485Z,28.48
2023-02-14T15:41:35.912Z,32.28
2023-02-14T15:44:04.595Z,31.95
2023-02-14T15:46:36.447Z,28.35
2023-02-14T15:49:11.532Z,25.20
2023-02-14T15:51:40.653Z,26.88
2023-02-14T15:54:20.184Z,30.55
2023-02-14T15:56:52.607Z,27.40
2023-02-14T15:59:23.440Z,31.48
2023-02-14T16:01:54.377Z,29.00
2023-02-14T16:04:27.167Z,33.30
2023-02-14T16:07:08.442Z,30.48
2023-02-14T16:09:37.716Z,29.35
2023-02-14T16:12:32.633Z,31.85
2023-02-14T16:15:12.068Z,30.38
2023-02-14T16:17:41.950Z,32.95
2023-02-14T16:20:29.737Z,32.83
2023-02-14T16:23:20.714Z,31.52
2023-02-14T16:25:50.085Z,30.63
2023-02-14T16:28:18.961Z,34.17
2023-02-14T16:30:48.991Z,35.15
2023-02-14T16:33:21.011Z,35.33
2023-02-14T16:36:01.400Z,35.22
2023-02-14T16:38:31.131Z,32.90
2023-02-14T16:40:59.862Z,32.88
2023-02-14T16:43:28.333Z,31.27
2023-02-14T16:45:56.644Z,31.10
2023-02-14T16:48:24.859Z,28.73
2023-02-14T16:50:54.532Z,31.80
2023-02-14T16:53:27.001Z,31.02
2023-02-14T16:55:58.153Z,30.77
2023-02-14T16:58:33.201Z,29.63
2023-02-14T17:01:01.805Z,33.33
2023-02-14T17:03:30.245Z,28.92
2023-02-14T17:06:02.747Z,27.92
2023-02-14T17:08:32.143Z,29.80
2023-02-14T17:11:02.240Z,30.33
2023-02-14T17:13:34.808Z,29.20
2023-02-14T17:16:04.469Z,30.55
2023-02-14T17:18:34.269Z,33.03
2023-02-14T17:21:09.283Z,30.00
2023-02-14T17:23:38.639Z,28.67
2023-02-14T17:26:07.169Z,32.90
2023-02-14T17:28:36.787Z,30.55
2023-02-14T17:31:05.727Z,30.95
2023-02-14T17:33:34.695Z,34.85
2023-02-14T17:36:11.523Z,31.67
2023-02-14T17:38:43.340Z,32.13
2023-02-14T17:41:13.710Z,32.38
2023-02-14T17:43:42.383Z,33.85
2023-02-14T17:46:11.116Z,33.90
2023-02-14T17:48:39.403Z,31.23
2023-02-14T17:51:11.190Z,36.45
2023-02-14T17:53:41.463Z,36.90
2023-02-14T17:56:11.728Z,37.03
2023-02-14T17:58:40.608Z,37.03
2023-02-14T18:01:11.268Z,37.13
2023-02-14T18:03:40.472Z,32.67
2023-02-14T18:06:12.347Z,32.88
2023-02-14T18:08:43.255Z,32.63
2023-02-14T18:11:13.929Z,35.20
2023-02-14T18:13:42.689Z,35.30
2023-02-14T18:16:13.209Z,37.63
2023-02-14T18:18:42.208Z,35.78
2023-02-14T18:21:14.244Z,39.92
2023-02-14T18:23:43.376Z,33.53
2023-02-14T18:26:14.228Z,35.10
2023-02-14T18:28:42.631Z,34.72
2023-02-14T18:31:13.105Z,38.42
2023-02-14T18:33:42.077Z,38.20
2023-02-14T18:36:13.543Z,33.15
2023-02-14T18:38:43.662Z,39.30
2023-02-14T18:41:16.982Z,34.92
2023-02-14T18:43:45.658Z,36.38
2023-02-14T18:46:16.205Z,38.70
2023-02-14T18:48:45.088Z,35.65
2023-02-14T18:51:16.436Z,37.05
2023-02-14T18:53:46.096Z,35.40
2023-02-14T18:56:16.128Z,41.70
2023-02-14T18:58:47.524Z,44.38
2023-02-14T19:01:17.919Z,40.63
2023-02-14T19:03:46.563Z,41.97
2023-02-14T19:06:16.595Z,40.65
2023-02-14T19:08:45.382Z,39.70
2023-02-14T19:11:15.835Z,37.67
2023-02-14T19:13:45.603Z,40.78
2023-02-14T19:16:15.188Z,35.63
2023-02-14T19:18:44.117Z,39.38
2023-02-14T19:21:13.326Z,44.13
2023-02-14T19:23:43.193Z,37.65
2023-02-14T19:26:13.148Z,40.13
2023-02-14T19:28:41.995Z,41.17
2023-02-14T19:31:10.767Z,37.70
2023-02-14T19:33:40.431Z,41.38
2023-02-14T19:36:12.819Z,40.15
2023-02-14T19:38:43.956Z,35.97
2023-02-14T19:41:16.560Z,40.88
2023-02-14T19:43:45.788Z,37.85
2023-02-14T19:46:14.520Z,39.60
2023-02-14T19:48:44.526Z,41.65
2023-02-14T19:51:16.687Z,37.17
2023-02-14T19:53:46.639Z,46.28
2023-02-14T19:56:20.578Z,53.58
2023-02-14T19:58:49.626Z,52.72
2023-02-14T20:01:25.287Z,53.10
2023-02-14T20:03:54.127Z,49.08
2023-02-14T20:06:22.754Z,55.47
2023-02-14T20:08:52.982Z,59.05
2023-02-14T20:11:30.142Z,63.08
2023-02-14T20:13:59.407Z,66.63
2023-02-14T20:16:29.526Z,58.63
2023-02-14T20:18:58.672Z,60.55
2023-02-14T20:21:28.240Z,65.43
2023-02-14T20:24:00.797Z,54.47
2023-02-14T20:26:29.858Z,63.70
2023-02-14T20:29:00.036Z,66.25
2023-02-14T20:31:28.438Z,60.50
2023-02-14T20:33:57.281Z,58.03
2023-02-14T20:36:26.141Z,61.45
2023-02-14T20:38:56.352Z,60.85
2023-02-14T20:41:27.573Z,58.00
2023-02-14T20:43:57.053Z,53.65
2023-02-14T20:46:25.291Z,61.08
2023-02-14T20:48:54.125Z,57.88
2023-02-14T20:51:23.244Z,52.67
2023-02-14T20:53:52.509Z,61.13
2023-02-14T20:56:22.759Z,55.35
2023-02-14T20:58:53.211Z,58.00
2023-02-14T21:01:23.545Z,58.67
2023-02-14T21:03:53.980Z,62.80
2023-02-14T21:06:25.329Z,61.80
2023-02-14T21:08:53.938Z,52.33
2023-02-14T21:11:24.190Z,61.90
2023-02-14T21:13:59.211Z,58.10
2023-02-14T21:16:29.061Z,56.33
2023-02-14T21:18:59.804Z,50.55
2023-02-14T21:21:32.601Z,58.58
2023-02-14T21:24:02.285Z,57.92
2023-02-14T21:26:30.939Z,53.63
2023-02-14T21:29:01.535Z,53.13
2023-02-14T21:31:30.132Z,53.45
2023-02-14T21:34:00.301Z,56.22
2023-02-14T21:36:30.415Z,52.30
2023-02-14T21:39:00.034Z,52.47
2023-02-14T21:41:30.715Z,49.78
2023-02-14T21:44:01.682Z,53.83
2023-02-14T21:46:31.787Z,76.22
2023-02-14T21:49:18.764Z,70.88
2023-02-14T21:51:47.576Z,64.10
2023-02-14T21:54:16.130Z,61.30
2023-02-14T21:56:44.853Z,64.68
2023-02-14T21:59:14.649Z,53.05
2023-02-14T22:01:43.643Z,56.63
2023-02-14T22:04:13.332Z,70.53
2023-02-14T22:06:43.081Z,62.17
2023-02-14T22:09:13.004Z,62.10
2023-02-14T22:11:42.002Z,63.58
2023-02-14T22:14:10.209Z,79.53
2023-02-14T22:16:39.896Z,90.95
2023-02-14T22:19:11.866Z,79.20
2023-02-14T22:21:40.204Z,75.60
2023-02-14T22:24:08.937Z,58.67
2023-02-14T22:26:40.748Z,82.88
2023-02-14T22:29:10.958Z,87.68
2023-02-14T22:31:42.719Z,86.97
2023-02-14T22:34:12.952Z,92.78
2023-02-14T22:36:41.771Z,76.22
2023-02-14T22:39:11.370Z,86.60
2023-02-14T22:41:39.680Z,84.68
2023-02-14T22:44:08.081Z,102.65
2023-02-14T22:46:37.714Z,94.82
2023-02-14T22:49:08.156Z,79.50
2023-02-14T22:51:37.635Z,106.85
2023-02-14T22:54:08.005Z,66.68
2023-02-14T22:56:39.381Z,67.32
2023-02-14T22:59:10.049Z,110.28
2023-02-14T23:01:38.309Z,58.33
2023-02-14T23:04:08.451Z,73.82
2023-02-14T23:06:37.880Z,57.97
2023-02-14T23:09:09.053Z,67.78
2023-02-14T23:11:39.744Z,71.47
2023-02-14T23:14:25.824Z,69.07
2023-02-14T23:17:20.279Z,70.95
2023-02-14T23:20:07.644Z,68.85
2023-02-14T23:22:38.160Z,104.28
2023-02-14T23:25:08.617Z,79.82
2023-02-14T23:27:39.000Z,76.85
2023-02-14T23:30:09.443Z,86.60
2023-02-14T23:32:37.839Z,111.43
2023-02-14T23:35:08.275Z,104.13
2023-02-14T23:37:36.620Z,124.05
2023-02-14T23:40:05.895Z,67.78
2023-02-14T23:42:34.262Z,160.25
2023-02-14T23:45:16.402Z,68.38
2023-02-14T23:47:44.710Z,59.15
2023-02-14T23:50:14.344Z,127.75
2023-02-14T23:52:44.384Z,74.28
2023-02-14T23:55:12.991Z,59.72
2023-02-14T23:57:41.651Z,93.78
